createdAt,value
2019-04-29T00:01:56.433Z,86.10
2019-04-29T00:04:25.735Z,85.80
2019-04-29T00:06:55.027Z,85.80
2019-04-29T00:09:24.539Z,85.50
2019-04-29T00:11:53.803Z,85.50
2019-04-29T00:14:24.241Z,86.00
2019-04-29T00:16:55.195Z,85.90
2019-04-29T00:19:26.234Z,85.70
2019-04-29T00:21:55.540Z,85.70
2019-04-29T00:24:24.945Z,86.60
2019-04-29T00:26:57.177Z,86.70
2019-04-29T00:29:26.641Z,86.40
2019-04-29T00:31:56.158Z,86.30
2019-04-29T00:34:25.738Z,86.30
2019-04-29T00:36:57.686Z,86.10
2019-04-29T00:39:31.668Z,86.00
2019-04-29T00:42:20.916Z,86.40
2019-04-29T00:44:50.282Z,85.60
2019-04-29T00:47:19.623Z,85.70
2019-04-29T00:49:48.941Z,86.10
2019-04-29T00:52:18.706Z,86.00
2019-04-29T00:54:49.771Z,86.70
2019-04-29T00:57:19.046Z,86.50
2019-04-29T00:59:48.296Z,86.80
2019-04-29T01:02:17.995Z,87.60
2019-04-29T01:04:47.262Z,87.80
2019-04-29T01:07:16.801Z,88.10
2019-04-29T01:09:46.362Z,88.10
2019-04-29T01:12:15.961Z,88.00
2019-04-29T01:14:45.500Z,88.10
2019-04-29T01:17:14.792Z,87.90
2019-04-29T01:19:44.202Z,87.50
2019-04-29T01:22:13.483Z,87.70
2019-04-29T01:24:42.933Z,87.60
2019-04-29T01:27:16.749Z,87.90
2019-04-29T01:29:46.273Z,87.90
2019-04-29T01:32:15.522Z,87.70
2019-04-29T01:34:52.406Z,87.90
2019-04-29T01:37:23.425Z,87.90
2019-04-29T01:39:54.333Z,87.90
2019-04-29T01:42:25.301Z,88.10
2019-04-29T01:44:54.774Z,87.60
2019-04-29T01:47:24.146Z,87.50
2019-04-29T01:49:53.450Z,87.40
2019-04-29T01:52:22.711Z,87.50
2019-04-29T01:54:52.245Z,87.20
2019-04-29T01:57:21.674Z,87.10
2019-04-29T01:59:50.985Z,87.30
2019-04-29T02:02:20.282Z,87.00
2019-04-29T02:04:49.725Z,87.40
2019-04-29T02:07:19.028Z,87.70
2019-04-29T02:09:58.957Z,87.80
2019-04-29T02:12:28.230Z,87.90
2019-04-29T02:14:57.486Z,88.10
2019-04-29T02:17:26.766Z,87.80
2019-04-29T02:19:56.120Z,87.70
2019-04-29T02:22:30.147Z,86.90
2019-04-29T02:25:01.182Z,86.40
2019-04-29T02:27:30.630Z,86.10
2019-04-29T02:29:59.886Z,85.40
2019-04-29T02:32:29.151Z,85.40
2019-04-29T02:34:58.404Z,85.20
2019-04-29T02:37:29.311Z,84.50
2019-04-29T02:40:00.295Z,85.10
2019-04-29T02:42:40.594Z,85.20
2019-04-29T02:45:11.508Z,85.10
2019-04-29T02:47:40.921Z,84.50
2019-04-29T02:50:10.539Z,84.10
2019-04-29T02:52:39.791Z,83.90
2019-04-29T02:55:10.813Z,84.10
2019-04-29T02:57:44.663Z,83.80
2019-04-29T03:00:21.955Z,83.60
2019-04-29T03:02:58.630Z,83.10
2019-04-29T03:05:29.561Z,83.60
2019-04-29T03:07:59.073Z,83.90
2019-04-29T03:10:28.553Z,84.10
2019-04-29T03:12:58.087Z,84.00
2019-04-29T03:15:31.233Z,83.60
2019-04-29T03:18:00.887Z,84.00
2019-04-29T03:20:31.827Z,83.80
2019-04-29T03:23:08.936Z,83.60
2019-04-29T03:25:38.270Z,83.80
2019-04-29T03:28:07.506Z,84.40
2019-04-29T03:30:37.758Z,84.40
2019-04-29T03:33:07.042Z,84.60
2019-04-29T03:35:36.558Z,84.50
2019-04-29T03:38:06.246Z,85.00
2019-04-29T03:40:35.804Z,85.40
2019-04-29T03:43:05.328Z,86.30
2019-04-29T03:45:34.728Z,86.80
2019-04-29T03:48:03.984Z,87.20
2019-04-29T03:50:33.457Z,87.50
2019-04-29T03:53:02.730Z,87.80
2019-04-29T03:55:39.627Z,87.80
2019-04-29T03:58:02.983Z,87.80
2019-04-29T04:00:32.335Z,88.30
2019-04-29T04:03:03.259Z,89.00
2019-04-29T04:05:36.770Z,89.30
2019-04-29T04:08:13.659Z,89.50
2019-04-29T04:10:43.118Z,89.70
2019-04-29T04:13:13.333Z,90.00
2019-04-29T04:15:43.038Z,90.20
2019-04-29T04:18:19.862Z,90.30
2019-04-29T04:20:49.572Z,90.40
2019-04-29T04:23:18.820Z,90.40
2019-04-29T04:25:48.398Z,90.40
2019-04-29T04:28:17.928Z,90.30
2019-04-29T04:30:47.326Z,90.30
2019-04-29T04:33:16.679Z,90.30
2019-04-29T04:35:46.067Z,90.10
2019-04-29T04:38:15.347Z,90.00
2019-04-29T04:40:46.351Z,90.20
2019-04-29T04:43:15.610Z,90.10
2019-04-29T04:45:45.052Z,90.30
2019-04-29T04:48:14.507Z,90.00
2019-04-29T04:50:43.888Z,89.80
2019-04-29T04:53:13.447Z,90.10
2019-04-29T04:55:44.643Z,90.10
2019-04-29T04:58:13.991Z,89.70
2019-04-29T05:00:43.370Z,89.80
2019-04-29T05:03:12.925Z,89.40
2019-04-29T05:05:42.786Z,89.20
2019-04-29T05:08:12.181Z,89.40
2019-04-29T05:10:41.597Z,89.40
2019-04-29T05:13:11.222Z,89.30
2019-04-29T05:15:40.582Z,88.60
2019-04-29T05:18:10.268Z,89.50
2019-04-29T05:20:39.842Z,88.00
2019-04-29T05:23:09.130Z,87.30
2019-04-29T05:25:38.473Z,86.80
2019-04-29T05:28:07.746Z,87.10
2019-04-29T05:30:37.114Z,86.90
2019-04-29T05:33:06.836Z,86.50
2019-04-29T05:35:46.841Z,85.70
2019-04-29T05:38:18.115Z,86.50
2019-04-29T05:40:56.738Z,86.20
2019-04-29T05:43:35.205Z,86.40
2019-04-29T05:46:08.973Z,85.70
2019-04-29T05:48:38.310Z,84.90
2019-04-29T05:51:09.265Z,85.50
2019-04-29T05:53:54.999Z,85.80
2019-04-29T05:56:20.874Z,85.40
2019-04-29T05:58:51.132Z,86.00
2019-04-29T06:01:22.014Z,86.00
2019-04-29T06:03:51.748Z,85.40
2019-04-29T06:06:20.999Z,85.40
2019-04-29T06:08:51.260Z,85.40
2019-04-29T06:11:23.255Z,84.50
2019-04-29T06:13:51.546Z,83.00
2019-04-29T06:16:22.644Z,81.80
2019-04-29T06:18:59.381Z,81.20
2019-04-29T06:21:23.132Z,81.60
2019-04-29T06:23:54.552Z,80.00
2019-04-29T06:26:23.386Z,80.90
2019-04-29T06:28:52.641Z,81.30
2019-04-29T06:31:22.057Z,81.80
2019-04-29T06:33:51.593Z,81.30
2019-04-29T06:36:21.889Z,81.60
2019-04-29T06:38:51.522Z,82.70
2019-04-29T06:41:20.892Z,82.60
2019-04-29T06:43:55.612Z,81.70
2019-04-29T06:46:23.094Z,80.70
2019-04-29T06:48:52.384Z,81.50
2019-04-29T06:51:21.769Z,83.10
2019-04-29T06:53:51.062Z,83.70
2019-04-29T06:56:20.623Z,83.10
2019-04-29T06:58:49.900Z,83.30
2019-04-29T07:01:19.462Z,84.10
2019-04-29T07:03:48.767Z,84.20
2019-04-29T07:06:18.050Z,82.70
2019-04-29T07:08:48.349Z,83.40
2019-04-29T07:11:18.365Z,83.40
2019-04-29T07:13:47.757Z,82.80
2019-04-29T07:16:17.225Z,82.50
2019-04-29T07:18:51.252Z,81.70
2019-04-29T07:21:17.657Z,84.40
2019-04-29T07:23:47.205Z,83.90
2019-04-29T07:26:16.531Z,84.80
2019-04-29T07:28:48.768Z,82.90
2019-04-29T07:31:17.171Z,83.90
2019-04-29T07:33:46.601Z,83.40
2019-04-29T07:36:18.650Z,84.40
2019-04-29T07:38:51.711Z,84.40
2019-04-29T07:41:19.178Z,82.70
2019-04-29T07:43:48.753Z,81.10
2019-04-29T07:46:22.606Z,81.80
2019-04-29T07:49:01.240Z,82.90
2019-04-29T07:51:23.171Z,82.40
2019-04-29T07:53:52.568Z,82.10
2019-04-29T07:56:21.872Z,81.50
2019-04-29T07:58:51.129Z,82.60
2019-04-29T08:01:24.337Z,83.50
2019-04-29T08:03:51.304Z,83.80
2019-04-29T08:06:21.950Z,84.30
2019-04-29T08:08:55.084Z,84.00
2019-04-29T08:11:22.486Z,82.80
2019-04-29T08:13:51.792Z,82.00
2019-04-29T08:16:21.519Z,80.90
2019-04-29T08:28:52.922Z,80.70
2019-04-29T08:31:22.318Z,81.20
2019-04-29T08:33:51.641Z,80.70
2019-04-29T08:36:21.189Z,80.40
2019-04-29T08:38:50.582Z,80.20
2019-04-29T08:41:21.031Z,79.00
2019-04-29T08:44:15.209Z,79.00
2019-04-29T08:46:44.446Z,77.70
2019-04-29T08:49:14.566Z,78.00
2019-04-29T08:51:42.461Z,77.90
2019-04-29T08:54:11.818Z,79.10
2019-04-29T08:57:01.865Z,79.00
2019-04-29T08:59:12.020Z,77.70
2019-04-29T09:01:41.422Z,79.00
2019-04-29T09:04:10.815Z,78.60
2019-04-29T09:06:40.217Z,78.70
2019-04-29T09:09:28.159Z,76.80
2019-04-29T09:11:43.523Z,76.50
2019-04-29T09:14:13.023Z,76.30
2019-04-29T09:16:42.695Z,75.10
2019-04-29T09:19:11.948Z,74.30
2019-04-29T09:21:42.865Z,74.20
2019-04-29T09:24:12.250Z,73.50
2019-04-29T09:26:43.223Z,74.60
2019-04-29T09:29:32.020Z,72.90
2019-04-29T09:32:02.741Z,74.70
2019-04-29T09:34:32.249Z,75.60
2019-04-29T09:37:01.637Z,75.90
2019-04-29T09:39:42.851Z,74.40
2019-04-29T09:42:13.210Z,75.50
2019-04-29T09:44:44.992Z,75.80
2019-04-29T09:47:15.136Z,76.70
2019-04-29T09:49:44.591Z,77.60
2019-04-29T09:52:14.234Z,78.00
2019-04-29T09:54:43.681Z,79.60
2019-04-29T09:57:13.334Z,80.50
2019-04-29T10:00:07.148Z,79.60
2019-04-29T10:02:49.248Z,78.90
2019-04-29T10:05:23.836Z,77.70
2019-04-29T10:07:53.741Z,77.00
2019-04-29T10:10:23.144Z,78.50
2019-04-29T10:12:54.033Z,78.60
2019-04-29T10:15:25.551Z,76.80
2019-04-29T10:17:56.707Z,76.10
2019-04-29T10:20:30.690Z,76.30
2019-04-29T10:23:00.009Z,76.70
2019-04-29T10:25:29.413Z,80.30
2019-04-29T10:27:58.829Z,80.70
2019-04-29T10:30:31.119Z,79.80
2019-04-29T10:33:02.281Z,78.60
2019-04-29T10:35:31.679Z,79.40
2019-04-29T10:38:02.816Z,80.60
2019-04-29T10:40:40.615Z,81.50
2019-04-29T10:43:15.345Z,82.30
2019-04-29T10:46:00.158Z,81.20
2019-04-29T10:48:36.222Z,81.40
2019-04-29T10:51:07.147Z,77.70
2019-04-29T10:53:36.759Z,77.20
2019-04-29T10:56:07.011Z,75.70
2019-04-29T10:58:36.440Z,76.50
2019-04-29T11:01:29.142Z,76.00
2019-04-29T11:04:00.771Z,76.10
2019-04-29T11:06:31.487Z,74.80
2019-04-29T11:09:01.529Z,74.00
2019-04-29T11:11:33.396Z,75.50
2019-04-29T11:14:03.155Z,75.30
2019-04-29T11:16:46.104Z,75.40
2019-04-29T11:19:05.514Z,77.90
2019-04-29T11:21:38.645Z,77.20
2019-04-29T11:24:08.250Z,78.10
2019-04-29T11:26:55.367Z,77.00
2019-04-29T11:29:27.455Z,75.20
2019-04-29T11:31:57.409Z,74.10
2019-04-29T11:34:28.345Z,72.20
2019-04-29T11:36:57.671Z,71.80
2019-04-29T11:39:27.006Z,71.50
2019-04-29T11:48:59.698Z,70.80
2019-04-29T11:51:41.366Z,74.00
2019-04-29T11:54:08.258Z,74.30
2019-04-29T11:56:35.667Z,75.30
2019-04-29T11:59:09.629Z,75.80
2019-04-29T12:01:47.228Z,74.80
2019-04-29T12:04:14.466Z,75.20
2019-04-29T12:06:43.916Z,75.30
2019-04-29T12:09:13.227Z,73.50
2019-04-29T12:11:42.773Z,73.40
2019-04-29T12:14:16.273Z,72.00
2019-04-29T12:16:50.181Z,71.30
2019-04-29T12:19:23.923Z,72.10
2019-04-29T12:21:53.217Z,70.20
2019-04-29T12:24:22.795Z,71.10
2019-04-29T12:26:52.182Z,70.40
2019-04-29T12:29:21.743Z,72.40
2019-04-29T12:31:55.488Z,69.80
2019-04-29T12:34:26.834Z,71.30
2019-04-29T12:36:56.939Z,72.40
2019-04-29T12:39:43.872Z,72.30
2019-04-29T12:42:12.275Z,73.10
2019-04-29T12:44:49.177Z,72.50
2019-04-29T12:47:26.790Z,72.90
2019-04-29T12:56:37.603Z,78.40
2019-04-29T12:59:06.986Z,78.80
2019-04-29T13:01:51.017Z,81.80
2019-04-29T13:04:14.465Z,81.50
2019-04-29T13:06:43.207Z,82.00
2019-04-29T13:09:17.824Z,83.70
2019-04-29T13:11:48.463Z,84.30
2019-04-29T13:14:16.388Z,83.50
2019-04-29T13:16:55.652Z,84.60
2019-04-29T13:19:34.650Z,85.20
2019-04-29T13:22:03.908Z,86.40
2019-04-29T13:24:34.267Z,83.80
2019-04-29T13:27:15.638Z,84.10
2019-04-29T13:29:36.093Z,83.10
2019-04-29T13:32:05.910Z,82.60
2019-04-29T13:34:37.789Z,81.60
2019-04-29T13:37:08.208Z,84.60
2019-04-29T13:39:40.249Z,87.90
2019-04-29T13:42:15.076Z,88.20
2019-04-29T13:44:42.685Z,89.50
2019-04-29T13:47:13.134Z,89.00
2019-04-29T13:49:49.421Z,89.60
2019-04-29T13:52:18.084Z,86.40
2019-04-29T13:54:47.573Z,86.60
2019-04-29T13:57:16.972Z,84.00
2019-04-29T14:00:03.911Z,85.00
2019-04-29T14:02:36.974Z,85.80
2019-04-29T14:05:08.601Z,82.60
2019-04-29T14:07:39.612Z,82.20
2019-04-29T14:10:10.109Z,82.30
2019-04-29T14:12:48.230Z,82.30
2019-04-29T14:15:11.388Z,82.00
2019-04-29T14:17:40.750Z,80.50
2019-04-29T14:20:10.823Z,81.40
2019-04-29T14:22:41.005Z,81.00
2019-04-29T14:25:13.329Z,80.10
2019-04-29T14:27:41.861Z,81.20
2019-04-29T14:30:14.322Z,79.80
2019-04-29T14:32:46.967Z,80.70
2019-04-29T14:35:16.754Z,81.80
2019-04-29T14:37:55.004Z,82.10
2019-04-29T14:40:17.321Z,82.50
2019-04-29T14:42:57.947Z,81.00
2019-04-29T14:45:35.636Z,82.90
2019-04-29T14:48:22.659Z,79.60
2019-04-29T14:50:54.051Z,81.70
2019-04-29T14:53:26.215Z,82.80
2019-04-29T14:55:55.514Z,82.30
2019-04-29T14:58:25.521Z,81.90
2019-04-29T15:00:56.734Z,84.40
2019-04-29T15:03:27.666Z,85.00
2019-04-29T15:05:57.024Z,85.60
2019-04-29T15:08:26.340Z,85.30
2019-04-29T15:10:55.637Z,85.10
2019-04-29T15:13:25.891Z,85.40
2019-04-29T15:16:04.262Z,85.50
2019-04-29T15:18:47.457Z,84.30
2019-04-29T15:21:12.830Z,84.30
2019-04-29T15:23:42.886Z,85.20
2019-04-29T15:26:12.162Z,84.00
2019-04-29T15:28:53.503Z,82.90
2019-04-29T15:31:23.472Z,83.50
2019-04-29T15:33:52.807Z,82.40
2019-04-29T15:36:22.098Z,83.10
2019-04-29T15:39:07.707Z,83.30
2019-04-29T15:41:29.853Z,84.40
2019-04-29T15:44:06.493Z,85.30
2019-04-29T15:46:24.362Z,84.60
2019-04-29T15:48:53.817Z,85.70
2019-04-29T15:51:23.422Z,86.60
2019-04-29T15:53:54.508Z,85.20
2019-04-29T15:56:28.894Z,85.10
2019-04-29T15:58:59.613Z,86.60
2019-04-29T16:01:27.884Z,87.30
2019-04-29T16:03:58.885Z,86.50
2019-04-29T16:06:40.039Z,87.10
2019-04-29T16:09:09.067Z,88.20
2019-04-29T16:11:57.037Z,90.00
2019-04-29T16:14:26.725Z,90.80
2019-04-29T16:16:56.085Z,90.70
2019-04-29T16:19:25.638Z,90.90
2019-04-29T16:21:54.952Z,91.80
2019-04-29T16:24:27.036Z,92.00
2019-04-29T16:26:55.375Z,92.30
2019-04-29T16:29:24.961Z,92.40
2019-04-29T16:34:26.819Z,93.20
2019-04-29T16:36:56.267Z,93.10
2019-04-29T16:39:25.523Z,93.10
2019-04-29T16:42:02.205Z,93.50
2019-04-29T16:44:36.086Z,93.40
2019-04-29T16:47:07.413Z,93.20
2019-04-29T16:49:37.397Z,93.40
2019-04-29T16:52:06.945Z,93.80
2019-04-29T16:54:36.334Z,94.00
2019-04-29T16:57:05.739Z,93.60
2019-04-29T16:59:35.056Z,94.00
2019-04-29T17:02:04.424Z,93.90
2019-04-29T17:04:33.772Z,94.10
2019-04-29T17:07:12.478Z,94.40
2019-04-29T17:09:38.536Z,93.70
2019-04-29T17:12:08.176Z,94.60
2019-04-29T17:15:02.347Z,94.70
2019-04-29T17:17:10.093Z,94.70
2019-04-29T17:19:39.670Z,94.60
2019-04-29T17:22:24.724Z,95.00
2019-04-29T17:24:42.783Z,94.90
2019-04-29T17:27:23.463Z,95.50
2019-04-29T17:30:12.007Z,95.10
2019-04-29T17:32:47.463Z,95.40
2019-04-29T17:35:17.131Z,92.80
2019-04-29T17:35:21.315Z,95.30
2019-04-29T17:37:45.586Z,95.20
2019-04-29T17:40:19.370Z,95.20
2019-04-29T17:42:50.549Z,95.00
2019-04-29T17:45:29.077Z,95.30
2019-04-29T17:48:06.247Z,95.60
2019-04-29T17:50:39.224Z,95.90
2019-04-29T17:53:09.843Z,95.20
2019-04-29T17:55:44.998Z,94.80
2019-04-29T17:58:19.759Z,94.90
2019-04-29T18:01:07.064Z,95.10
2019-04-29T18:03:52.922Z,95.40
2019-04-29T18:06:32.956Z,95.80
2019-04-29T18:09:04.949Z,95.60
2019-04-29T18:11:49.614Z,94.40
2019-04-29T18:14:07.250Z,94.40
2019-04-29T18:16:39.549Z,93.30
2019-04-29T18:19:10.734Z,93.10
2019-04-29T18:21:43.269Z,93.00
2019-04-29T18:24:18.032Z,93.70
2019-04-29T18:26:54.720Z,94.30
2019-04-29T18:29:25.806Z,94.90
2019-04-29T18:31:55.639Z,95.20
2019-04-29T18:34:25.274Z,95.50
2019-04-29T18:37:00.143Z,95.90
2019-04-29T18:39:31.496Z,94.90
2019-04-29T18:42:03.076Z,95.30
2019-04-29T18:44:31.515Z,95.40
2019-04-29T18:47:01.170Z,95.70
2019-04-29T18:49:30.774Z,95.40
2019-04-29T18:52:02.149Z,95.10
2019-04-29T18:54:31.045Z,95.10
2019-04-29T18:57:00.569Z,95.10
2019-04-29T18:59:33.383Z,95.00
2019-04-29T19:02:07.891Z,95.00
2019-04-29T19:04:36.806Z,95.10
2019-04-29T19:07:06.347Z,95.20
2019-04-29T19:09:37.355Z,95.60
2019-04-29T19:12:06.981Z,95.60
2019-04-29T19:14:36.234Z,95.50
2019-04-29T19:17:05.529Z,95.90
2019-04-29T19:19:39.062Z,95.40
2019-04-29T19:22:09.301Z,95.40
2019-04-29T19:24:38.171Z,95.10
2019-04-29T19:27:09.781Z,94.50
2019-04-29T19:29:43.185Z,95.20
2019-04-29T19:32:10.670Z,95.00
2019-04-29T19:34:43.468Z,95.00
2019-04-29T19:37:12.413Z,95.10
2019-04-29T19:39:42.159Z,95.10
2019-04-29T19:42:11.759Z,95.40
2019-04-29T19:44:41.289Z,95.40
2019-04-29T19:47:14.646Z,95.50
2019-04-29T19:49:44.655Z,95.20
2019-04-29T19:52:18.773Z,95.60
2019-04-29T19:54:43.730Z,95.30
2019-04-29T19:57:14.840Z,95.70
2019-04-29T19:59:51.475Z,95.60
2019-04-29T20:02:17.037Z,95.80
2019-04-29T20:04:52.201Z,95.20
2019-04-29T20:07:20.085Z,95.50
2019-04-29T20:09:59.881Z,95.10
2019-04-29T20:12:21.376Z,94.90
2019-04-29T20:14:58.713Z,95.30
2019-04-29T20:17:32.905Z,95.30
2019-04-29T20:20:16.116Z,95.00
2019-04-29T20:22:50.943Z,95.40
2019-04-29T20:25:16.840Z,95.40
2019-04-29T20:27:47.892Z,95.40
2019-04-29T20:30:20.654Z,95.30
2019-04-29T20:32:48.357Z,94.70
2019-04-29T20:35:18.262Z,95.30
2019-04-29T20:37:55.688Z,95.00
2019-04-29T20:40:19.091Z,94.90
2019-04-29T20:42:49.357Z,95.20
2019-04-29T20:45:20.158Z,95.10
2019-04-29T20:47:49.968Z,95.70
2019-04-29T20:50:19.424Z,95.80
2019-04-29T20:53:05.899Z,95.50
2019-04-29T20:55:36.606Z,95.70
2019-04-29T20:58:06.763Z,95.60
2019-04-29T21:00:37.914Z,96.00
2019-04-29T21:03:09.604Z,95.50
2019-04-29T21:05:47.407Z,95.80
2019-04-29T21:08:16.420Z,96.00
2019-04-29T21:10:43.057Z,96.10
2019-04-29T21:13:16.099Z,96.50
2019-04-29T21:15:59.660Z,96.20
2019-04-29T21:18:28.998Z,96.30
2019-04-29T21:20:59.602Z,96.10
2019-04-29T21:23:35.248Z,96.00
2019-04-29T21:26:05.302Z,96.00
2019-04-29T21:28:38.233Z,96.30
2019-04-29T21:31:05.131Z,96.20
2019-04-29T21:33:35.511Z,96.10
2019-04-29T21:36:09.333Z,95.80
2019-04-29T21:39:01.824Z,95.50
2019-04-29T21:41:45.795Z,95.80
2019-04-29T21:44:15.139Z,95.60
2019-04-29T21:46:45.248Z,95.30
2019-04-29T21:49:15.627Z,95.30
2019-04-29T21:51:46.546Z,95.30
2019-04-29T21:54:16.405Z,96.00
2019-04-29T21:56:47.940Z,96.10
2019-04-29T21:59:16.754Z,96.10
2019-04-29T22:01:46.293Z,95.90
2019-04-29T22:04:15.776Z,96.40
2019-04-29T22:06:45.867Z,96.30
2019-04-29T22:09:16.466Z,96.10
2019-04-29T22:11:46.974Z,96.30
2019-04-29T22:14:16.329Z,96.20
2019-04-29T22:16:47.493Z,96.40
2019-04-29T22:19:17.566Z,96.30
2019-04-29T22:21:46.920Z,96.20
2019-04-29T22:24:16.274Z,96.10
2019-04-29T22:26:45.646Z,96.10
2019-04-29T22:29:15.117Z,96.30
2019-04-29T22:31:45.887Z,96.40
2019-04-29T22:34:19.017Z,96.10
2019-04-29T22:36:48.259Z,96.50
2019-04-29T22:39:17.121Z,96.80
2019-04-29T22:41:48.755Z,96.50
2019-04-29T22:44:21.693Z,96.60
2019-04-29T22:46:49.958Z,96.80
2019-04-29T22:49:24.570Z,96.60
2019-04-29T22:51:54.582Z,96.80
2019-04-29T22:54:22.138Z,96.90
2019-04-29T22:56:56.024Z,96.80
2019-04-29T22:59:25.378Z,96.70
2019-04-29T23:01:55.665Z,96.50
2019-04-29T23:04:25.290Z,96.80
2019-04-29T23:06:54.720Z,96.90
2019-04-29T23:09:24.084Z,97.20
2019-04-29T23:11:55.596Z,97.10
2019-04-29T23:14:25.258Z,96.90
2019-04-29T23:16:55.593Z,97.00
2019-04-29T23:19:25.961Z,97.10
2019-04-29T23:21:59.661Z,96.90
2019-04-29T23:24:51.288Z,97.20
2019-04-29T23:27:19.628Z,97.20
2019-04-29T23:29:49.969Z,97.40
2019-04-29T23:32:19.348Z,97.30
2019-04-29T23:34:48.602Z,97.50
2019-04-29T23:37:19.479Z,97.20
2019-04-29T23:39:48.779Z,97.20
2019-04-29T23:42:18.324Z,97.50
2019-04-29T23:44:47.661Z,97.30
2019-04-29T23:47:17.811Z,97.60
2019-04-29T23:49:47.109Z,97.60
2019-04-29T23:52:17.977Z,97.40
2019-04-29T23:54:48.586Z,97.60
2019-04-29T23:57:23.719Z,97.70
